Silverpeak, Nevada
Current Conditions -  °F | °C
As of 4:56 AM on Thursday 23 Oct 2014 (Local Time) from KTPH Reporting Station
Clear Clear  
Wind Chill: 34°   Ceiling: Unl
Heat Index: 41°   Visibility: 10mi
Dew Point: 15°   Wind: 12mph
Humidity: 35%   Direction: 360°N
Pressure: 30.17"   Gusts: NA
Location:  37.75°N, 117.64°W
Report Text: KTPH 231156Z AUTO 36010KT 10SM CLR 05/M09 A3017 RMK AO2 SLP178 T00501094 10072 20050 55005
Loading
Personal Weather Stations






























Interactive Weather Map
Tropical Storm Tracking
New forecast layout! Learn more

10-Day Weather Forecast

Advertisements
Track Severe Weather on mobile